Time;durP1;ratioP1;P1;durP2;ratioP2;P2;SDS_P1;SDS_P2;PMS_P1;PMS_P2;Temp;Humidity;BMP_temperature;BMP_pressure;BME280_temperature;BME280_humidity;BME280_pressure;Samples;Min_cycle;Max_cycle;Signal;HPM_P1;HPM_P2
2022/12/08 05:02:40;;;;;;;19.37;16.80;;;0.90;99.90;;;;;;6248418;23;20477;-62
2022/12/08 05:05:07;;;;;;;20.00;17.00;;;0.80;99.90;;;;;;6247077;23;20410;-63
2022/12/08 05:07:34;;;;;;;19.67;16.93;;;0.80;99.90;;;;;;6246964;23;20460;-63
2022/12/08 05:10:01;;;;;;;21.00;16.80;;;0.80;99.90;;;;;;6247121;23;20407;-63
2022/12/08 05:12:28;;;;;;;21.47;18.07;;;0.80;99.90;;;;;;6246615;23;20418;-63
2022/12/08 05:14:55;;;;;;;20.80;17.40;;;0.80;99.90;;;;;;6249091;23;20406;-63
2022/12/08 05:17:22;;;;;;;21.60;17.80;;;0.80;99.90;;;;;;6248664;23;20407;-63
2022/12/08 05:19:49;;;;;;;24.40;18.63;;;0.80;99.90;;;;;;6249995;23;20770;-65
2022/12/08 05:22:16;;;;;;;20.93;18.07;;;0.80;99.90;;;;;;6248475;23;20549;-63
2022/12/08 05:24:43;;;;;;;22.80;17.87;;;0.80;99.90;;;;;;6248801;23;20461;-62
2022/12/08 05:27:10;;;;;;;23.97;18.33;;;0.80;99.90;;;;;;6248070;23;20709;-63
2022/12/08 05:29:37;;;;;;;21.50;17.60;;;0.80;99.90;;;;;;6248095;23;20891;-63
2022/12/08 05:32:03;;;;;;;22.13;17.93;;;0.80;99.90;;;;;;6248322;23;20509;-64
2022/12/08 05:34:30;;;;;;;22.53;19.00;;;0.80;99.90;;;;;;6248250;23;20460;-63
2022/12/08 05:36:58;;;;;;;23.47;18.80;;;0.80;99.90;;;;;;6248550;23;20414;-63
2022/12/08 05:39:25;;;;;;;21.53;18.90;;;0.80;99.90;;;;;;6258292;23;20961;-63
2022/12/08 05:41:51;;;;;;;25.70;18.83;;;0.80;99.90;;;;;;6248330;23;20443;-62
2022/12/08 05:44:18;;;;;;;22.93;19.70;;;0.80;99.90;;;;;;6248141;23;20896;-63
2022/12/08 05:46:44;;;;;;;20.70;17.33;;;0.80;99.90;;;;;;6248336;23;20469;-63
2022/12/08 05:49:11;;;;;;;20.03;17.00;;;0.80;99.90;;;;;;6249505;23;20407;-63
2022/12/08 05:51:38;;;;;;;19.03;16.90;;;0.80;99.90;;;;;;6250305;23;20427;-63
2022/12/08 05:54:06;;;;;;;22.63;18.83;;;0.80;99.90;;;;;;6248737;23;20465;-64
2022/12/08 05:56:32;;;;;;;21.63;18.17;;;0.80;99.90;;;;;;6247648;23;20469;-63
2022/12/08 05:58:59;;;;;;;20.37;18.17;;;0.80;99.90;;;;;;6248143;23;20414;-63
2022/12/08 06:01:28;;;;;;;19.00;16.90;;;0.80;99.90;;;;;;6247555;23;20496;-63
2022/12/08 06:03:55;;;;;;;19.87;17.87;;;0.80;99.90;;;;;;6247868;23;20415;-64
2022/12/08 06:06:22;;;;;;;22.23;17.17;;;0.90;99.90;;;;;;6247912;23;20421;-63
2022/12/08 06:08:49;;;;;;;21.60;19.30;;;0.90;99.90;;;;;;6248182;23;20468;-62
2022/12/08 06:11:21;;;;;;;18.93;17.07;;;0.90;99.90;;;;;;6248214;23;20426;-63
2022/12/08 06:17:11;;;;;;;20.17;18.07;;;0.90;99.90;;;;;;6247825;23;20411;-62
2022/12/08 06:19:38;;;;;;;19.30;17.30;;;0.90;99.90;;;;;;6249378;23;20441;-62
2022/12/08 06:22:04;;;;;;;20.73;18.20;;;0.90;99.90;;;;;;6248386;23;20935;-62
2022/12/08 06:24:31;;;;;;;22.00;18.20;;;0.80;99.90;;;;;;6250558;23;20772;-63
2022/12/08 06:26:59;;;;;;;20.10;17.00;;;0.80;99.90;;;;;;6249154;23;20410;-62
2022/12/08 06:29:25;;;;;;;22.10;19.00;;;0.80;99.90;;;;;;6249994;23;20465;-63
2022/12/08 06:31:52;;;;;;;22.10;18.60;;;0.80;99.90;;;;;;6249018;23;20427;-64
2022/12/08 06:34:19;;;;;;;23.00;19.80;;;0.70;99.90;;;;;;6248445;23;20442;-63
2022/12/08 06:36:45;;;;;;;22.17;19.60;;;0.80;99.90;;;;;;6248228;23;20460;-62
2022/12/08 06:39:12;;;;;;;25.07;19.07;;;0.70;99.90;;;;;;6247616;23;20460;-63
2022/12/08 06:44:21;;;;;;;22.60;18.80;;;0.80;99.90;;;;;;6245705;23;20398;-63
2022/12/08 06:46:47;;;;;;;22.53;19.07;;;0.80;99.90;;;;;;6247266;23;20406;-62
2022/12/08 06:49:14;;;;;;;23.27;19.00;;;0.80;99.90;;;;;;6247337;23;20480;-62
2022/12/08 06:51:41;;;;;;;22.73;19.23;;;0.80;99.90;;;;;;6246734;23;20997;-62
2022/12/08 06:54:07;;;;;;;25.27;19.90;;;0.70;99.90;;;;;;6246949;23;20973;-62
2022/12/08 06:56:34;;;;;;;21.60;18.60;;;0.70;99.90;;;;;;6247407;23;20406;-63
2022/12/08 06:59:00;;;;;;;22.47;18.77;;;0.80;99.90;;;;;;6247171;23;20407;-64
2022/12/08 07:01:28;;;;;;;19.97;17.63;;;0.80;99.90;;;;;;6246817;23;20439;-62
2022/12/08 07:03:55;;;;;;;26.83;19.50;;;0.80;99.90;;;;;;6247241;23;20410;-62
2022/12/08 07:06:24;;;;;;;22.93;18.87;;;0.90;99.90;;;;;;6247368;23;20415;-63
2022/12/08 07:08:51;;;;;;;20.33;17.27;;;0.90;99.90;;;;;;6247693;23;20461;-62
2022/12/08 07:11:18;;;;;;;23.83;18.13;;;0.90;99.90;;;;;;6247751;23;20480;-62
2022/12/08 07:13:44;;;;;;;26.60;19.33;;;1.00;99.90;;;;;;6247625;23;20414;-62
2022/12/08 07:16:12;;;;;;;23.90;19.07;;;1.00;99.90;;;;;;6246795;23;20908;-62
2022/12/08 07:18:41;;;;;;;23.10;18.30;;;1.00;99.90;;;;;;6247383;23;20420;-62
2022/12/08 07:21:10;;;;;;;20.47;18.27;;;1.00;99.90;;;;;;6246725;23;20943;-62
2022/12/08 07:23:37;;;;;;;22.40;18.53;;;1.00;99.90;;;;;;6246819;23;20411;-62
2022/12/08 07:26:06;;;;;;;23.93;19.03;;;0.90;99.90;;;;;;6246844;23;20411;-62
2022/12/08 07:28:33;;;;;;;21.73;19.10;;;0.90;99.90;;;;;;6247133;23;20422;-62
2022/12/08 07:31:00;;;;;;;22.03;18.17;;;0.90;99.90;;;;;;6246945;23;20784;-62
2022/12/08 07:33:27;;;;;;;25.10;18.33;;;0.90;99.90;;;;;;6247040;23;20410;-62
2022/12/08 07:35:57;;;;;;;22.50;19.23;;;0.90;99.90;;;;;;6246106;23;20787;-62
2022/12/08 07:38:24;;;;;;;19.97;17.83;;;1.10;99.90;;;;;;6246962;23;20447;-62
2022/12/08 07:40:51;;;;;;;18.90;16.70;;;1.60;99.90;;;;;;6247089;23;20939;-62
2022/12/08 07:43:18;;;;;;;14.90;13.43;;;2.30;99.90;;;;;;6247425;23;20411;-62
2022/12/08 07:45:45;;;;;;;13.60;12.30;;;3.10;99.90;;;;;;6247508;23;20411;-62
2022/12/08 07:48:11;;;;;;;15.17;13.53;;;3.80;99.90;;;;;;6246833;23;20414;-62
2022/12/08 07:50:38;;;;;;;13.23;11.83;;;4.30;99.90;;;;;;6246676;23;20431;-62
2022/12/08 07:53:07;;;;;;;13.80;12.57;;;5.20;99.90;;;;;;6246548;23;20892;-63
2022/12/08 07:55:33;;;;;;;14.23;12.70;;;6.00;99.90;;;;;;6246814;23;20414;-62
2022/12/08 07:58:00;;;;;;;13.93;11.57;;;6.70;99.90;;;;;;6246361;23;20915;-60
2022/12/08 08:00:27;;;;;;;13.20;11.90;;;7.40;99.90;;;;;;6246357;23;20411;-61
2022/12/08 08:02:53;;;;;;;11.37;10.37;;;8.20;99.90;;;;;;6246671;23;20454;-61
2022/12/08 08:05:20;;;;;;;11.90;9.87;;;9.00;99.90;;;;;;6246707;23;20410;-62
2022/12/08 08:07:47;;;;;;;11.53;10.40;;;9.80;99.90;;;;;;6246403;23;20962;-62
2022/12/08 08:10:15;;;;;;;12.83;11.63;;;10.50;99.90;;;;;;6246638;23;20453;-61
2022/12/08 08:12:41;;;;;;;11.97;10.93;;;10.70;99.90;;;;;;6246555;23;20465;-61
2022/12/08 08:15:09;;;;;;;11.17;9.90;;;11.10;99.90;;;;;;6246362;23;20419;-61
2022/12/08 08:17:37;;;;;;;12.80;9.90;;;11.70;99.90;;;;;;6246855;23;20472;-61
2022/12/08 08:20:05;;;;;;;11.47;9.43;;;12.20;98.80;;;;;;6246622;23;20410;-61
2022/12/08 08:22:33;;;;;;;13.93;10.13;;;12.50;98.10;;;;;;6246219;23;20931;-64
2022/12/08 08:24:59;;;;;;;12.73;10.27;;;13.00;95.60;;;;;;6246822;23;20460;-65
2022/12/08 08:27:27;;;;;;;10.73;9.63;;;13.40;94.50;;;;;;6246426;23;20410;-65
2022/12/08 08:29:54;;;;;;;12.20;10.90;;;13.60;92.10;;;;;;6251749;23;20411;-65
2022/12/08 08:32:21;;;;;;;11.40;10.40;;;13.90;90.90;;;;;;6267400;23;20485;-65
2022/12/08 08:34:47;;;;;;;12.60;11.00;;;13.70;89.50;;;;;;6255714;23;20421;-64
2022/12/08 08:37:14;;;;;;;12.00;10.70;;;13.70;89.80;;;;;;6248665;23;20411;-65
2022/12/08 08:39:41;;;;;;;11.60;10.40;;;13.80;89.00;;;;;;6246730;23;20464;-65
2022/12/08 08:42:08;;;;;;;12.83;11.43;;;13.70;88.90;;;;;;6246546;23;20474;-64
2022/12/08 08:44:37;;;;;;;14.43;10.30;;;13.90;87.00;;;;;;6246708;23;20419;-65
2022/12/08 08:47:04;;;;;;;16.00;10.13;;;14.10;85.60;;;;;;6247605;23;20498;-64
2022/12/08 08:49:31;;;;;;;16.93;10.43;;;14.20;86.70;;;;;;6248848;23;20417;-64
2022/12/08 08:51:57;;;;;;;12.40;10.93;;;14.20;83.80;;;;;;6249890;23;20426;-64
2022/12/08 08:54:24;;;;;;;11.73;10.53;;;13.90;84.00;;;;;;6250749;23;20414;-64
2022/12/08 08:56:51;;;;;;;13.37;10.40;;;13.90;84.50;;;;;;6250243;23;20414;-64
2022/12/08 08:59:18;;;;;;;11.63;10.13;;;14.10;84.00;;;;;;6250341;23;20411;-64
2022/12/08 09:01:46;;;;;;;9.90;8.90;;;14.00;83.50;;;;;;6259136;23;20434;-63
2022/12/08 09:04:12;;;;;;;11.27;10.27;;;13.20;83.40;;;;;;6248669;23;20468;-62
2022/12/08 09:06:39;;;;;;;12.90;10.50;;;12.00;86.20;;;;;;6248378;23;20414;-62
2022/12/08 09:09:06;;;;;;;11.73;10.53;;;10.70;90.20;;;;;;6248316;23;20411;-62
2022/12/08 09:11:32;;;;;;;11.87;10.67;;;9.50;92.80;;;;;;6246807;23;20793;-62
2022/12/08 09:13:59;;;;;;;13.43;11.70;;;8.50;95.50;;;;;;6248966;23;20410;-62
2022/12/08 09:16:26;;;;;;;13.47;12.27;;;7.80;98.10;;;;;;6249763;23;20418;-62
2022/12/08 09:18:54;;;;;;;13.70;12.30;;;7.10;99.90;;;;;;6250776;23;20423;-62
2022/12/08 09:21:24;;;;;;;13.80;12.53;;;6.40;99.90;;;;;;6249340;23;20489;-63
2022/12/08 09:23:52;;;;;;;16.83;12.53;;;5.90;99.90;;;;;;6251032;23;20395;-62
2022/12/08 09:26:21;;;;;;;14.90;12.97;;;5.50;99.90;;;;;;6251697;23;20841;-62
2022/12/08 09:28:49;;;;;;;13.70;12.30;;;5.10;99.90;;;;;;6250440;23;20497;-62
2022/12/08 09:31:17;;;;;;;14.10;12.60;;;4.90;99.90;;;;;;6248982;23;20431;-63
2022/12/08 09:33:44;;;;;;;14.83;13.33;;;4.70;99.90;;;;;;6258433;23;20737;-63
2022/12/08 09:36:12;;;;;;;16.33;14.30;;;4.50;99.90;;;;;;6248017;23;20461;-63
2022/12/08 09:38:39;;;;;;;14.67;13.37;;;4.20;99.90;;;;;;6248851;23;20469;-64
2022/12/08 09:41:15;;;;;;;15.10;13.50;;;4.20;99.90;;;;;;6249320;23;20435;-64
2022/12/08 09:43:56;;;;;;;14.53;13.13;;;4.10;99.90;;;;;;6248950;23;20903;-65
2022/12/08 09:46:23;;;;;;;14.17;12.83;;;4.10;99.90;;;;;;6248644;23;20860;-65
2022/12/08 09:48:54;;;;;;;14.80;13.20;;;4.10;99.90;;;;;;6249820;23;20437;-62
2022/12/08 09:51:24;;;;;;;14.00;12.70;;;4.10;99.90;;;;;;6248374;23;20469;-64
2022/12/08 09:53:54;;;;;;;13.73;12.40;;;4.30;99.90;;;;;;6248023;23;20801;-65
2022/12/08 09:56:24;;;;;;;16.60;12.90;;;4.30;99.90;;;;;;6248528;23;20391;-65
2022/12/08 09:58:53;;;;;;;13.40;11.57;;;4.40;99.90;;;;;;6247987;23;20398;-65
2022/12/08 10:01:21;;;;;;;12.80;11.60;;;4.50;99.90;;;;;;6247647;23;20435;-65
2022/12/08 10:03:48;;;;;;;13.17;12.03;;;4.50;99.90;;;;;;6248510;23;20411;-65
2022/12/08 10:06:21;;;;;;;15.20;12.57;;;4.60;99.90;;;;;;6248980;23;20781;-65
2022/12/08 10:09:01;;;;;;;12.93;11.67;;;4.70;99.90;;;;;;6248731;23;20396;-65
2022/12/08 10:11:39;;;;;;;14.17;11.70;;;4.70;99.90;;;;;;6248787;23;20462;-65
2022/12/08 10:14:16;;;;;;;12.73;11.43;;;4.70;99.90;;;;;;6248227;23;20398;-65
2022/12/08 10:16:48;;;;;;;12.53;11.23;;;4.80;99.90;;;;;;6249317;23;20391;-65
2022/12/08 10:19:18;;;;;;;11.73;10.50;;;4.80;99.90;;;;;;6249427;23;20395;-62
2022/12/08 10:21:46;;;;;;;12.00;10.80;;;5.00;99.90;;;;;;6249301;23;20445;-62
2022/12/08 10:24:20;;;;;;;11.57;10.47;;;5.40;99.90;;;;;;6249183;23;20411;-62
2022/12/08 10:26:47;;;;;;;13.17;10.30;;;6.30;99.90;;;;;;6248870;23;20403;-62
2022/12/08 10:29:14;;;;;;;11.60;10.60;;;7.30;99.90;;;;;;6250931;23;20411;-63
2022/12/08 10:31:41;;;;;;;10.80;9.73;;;7.60;99.90;;;;;;6250236;23;20434;-63
2022/12/08 10:34:16;;;;;;;12.60;10.37;;;7.60;99.90;;;;;;6251038;23;20417;-63
2022/12/08 10:36:49;;;;;;;12.57;11.37;;;7.60;99.90;;;;;;6252775;23;20391;-62
2022/12/08 10:39:37;;;;;;;10.70;9.80;;;7.40;99.90;;;;;;6249144;23;20411;-62
2022/12/08 10:42:18;;;;;;;11.20;10.20;;;7.10;99.90;;;;;;6248731;23;20485;-62
2022/12/08 10:44:55;;;;;;;11.67;10.63;;;6.90;99.90;;;;;;6249300;23;20445;-62
2022/12/08 10:47:25;;;;;;;13.50;12.20;;;6.70;99.90;;;;;;6248939;23;20469;-63
2022/12/08 10:50:17;;;;;;;13.50;11.43;;;6.60;99.90;;;;;;6248590;23;20957;-62
2022/12/08 10:52:43;;;;;;;12.13;10.60;;;6.30;99.90;;;;;;6249414;23;20399;-62
2022/12/08 10:55:20;;;;;;;13.00;11.30;;;6.20;99.90;;;;;;6249183;23;20414;-62
2022/12/08 10:57:48;;;;;;;13.07;11.77;;;5.90;99.90;;;;;;6247441;23;20395;-64
2022/12/08 11:00:17;;;;;;;13.37;12.00;;;5.80;99.90;;;;;;6247138;23;20442;-63
2022/12/08 11:02:55;;;;;;;12.67;11.47;;;5.60;99.90;;;;;;6247161;23;20430;-63
2022/12/08 11:05:25;;;;;;;13.37;11.90;;;5.50;99.90;;;;;;6247343;23;20856;-63
2022/12/08 11:07:54;;;;;;;13.27;12.00;;;5.40;99.90;;;;;;6248557;23;20395;-62
2022/12/08 11:10:33;;;;;;;12.03;10.70;;;5.30;99.90;;;;;;6248619;23;20411;-63
2022/12/08 11:13:05;;;;;;;11.70;10.60;;;5.30;99.90;;;;;;6249615;23;20391;-62
2022/12/08 11:15:36;;;;;;;15.90;10.90;;;5.30;99.90;;;;;;6249521;23;20395;-62
2022/12/08 11:18:09;;;;;;;15.00;11.40;;;5.20;99.90;;;;;;6247876;23;20395;-63
2022/12/08 11:20:40;;;;;;;13.37;12.07;;;5.20;99.90;;;;;;6247282;23;20431;-64
2022/12/08 11:23:19;;;;;;;10.13;9.13;;;5.10;99.90;;;;;;6247225;23;20423;-64
2022/12/08 11:25:48;;;;;;;12.57;11.37;;;5.00;99.90;;;;;;6247534;23;20445;-65
2022/12/08 11:28:16;;;;;;;11.50;10.27;;;4.90;99.90;;;;;;6251902;23;20411;-64
2022/12/08 11:30:46;;;;;;;13.53;10.53;;;4.90;99.90;;;;;;6251640;23;20435;-64
2022/12/08 11:33:18;;;;;;;11.70;10.60;;;4.70;99.90;;;;;;6251313;23;20740;-64
2022/12/08 11:35:49;;;;;;;12.40;11.10;;;4.80;99.90;;;;;;6247309;23;20464;-64
2022/12/08 11:38:20;;;;;;;11.27;10.27;;;4.80;99.90;;;;;;6247042;23;20396;-64
2022/12/08 11:40:51;;;;;;;10.97;9.87;;;4.80;99.90;;;;;;6246323;23;20993;-64
2022/12/08 11:43:23;;;;;;;10.70;9.70;;;5.00;99.90;;;;;;6246936;23;20419;-63
2022/12/08 11:45:55;;;;;;;10.70;9.70;;;4.90;99.90;;;;;;6247708;23;20395;-63
2022/12/08 11:48:29;;;;;;;10.40;9.20;;;5.00;99.90;;;;;;6248923;23;20399;-63
2022/12/08 11:51:00;;;;;;;10.57;9.57;;;5.10;99.90;;;;;;6251704;23;20434;-62
2022/12/08 11:53:33;;;;;;;11.00;9.07;;;5.20;99.90;;;;;;6251623;23;20445;-62
2022/12/08 11:56:06;;;;;;;10.30;9.37;;;5.20;99.90;;;;;;6251924;23;20422;-62
2022/12/08 11:58:39;;;;;;;10.63;9.63;;;5.20;99.90;;;;;;6249654;23;20767;-62
2022/12/08 12:01:05;;;;;;;10.80;9.73;;;5.20;99.90;;;;;;6249768;23;20442;-62
2022/12/08 12:03:36;;;;;;;10.60;9.60;;;5.30;99.90;;;;;;6249657;23;20488;-62
2022/12/08 12:06:29;;;;;;;9.13;8.33;;;5.30;99.90;;;;;;6249356;23;20402;-63
2022/12/08 12:09:09;;;;;;;10.67;9.57;;;5.40;99.90;;;;;;6248955;23;20399;-63
2022/12/08 12:15:06;;;;;;;9.50;8.20;;;5.50;99.90;;;;;;6246827;23;20383;-64
2022/12/08 12:17:41;;;;;;;9.33;8.40;;;5.60;99.90;;;;;;6135141;23;20414;-64
2022/12/08 12:20:16;;;;;;;8.77;7.97;;;5.70;99.90;;;;;;6246916;23;20428;-63
2022/12/08 12:22:46;;;;;;;9.73;8.73;;;5.80;99.90;;;;;;6245904;23;20418;-63
2022/12/08 12:25:19;;;;;;;9.57;8.67;;;5.80;99.90;;;;;;6247025;23;20402;-64
2022/12/08 12:27:49;;;;;;;9.47;8.53;;;5.80;99.90;;;;;;6246485;23;20856;-63
2022/12/08 12:30:22;;;;;;;10.60;9.50;;;5.80;99.90;;;;;;6246858;23;20407;-64
2022/12/08 12:32:53;;;;;;;9.70;8.80;;;5.80;99.90;;;;;;6246857;23;20391;-64
2022/12/08 12:35:28;;;;;;;10.10;9.20;;;5.70;99.90;;;;;;6246689;23;20445;-64
2022/12/08 12:37:58;;;;;;;9.17;8.23;;;5.80;99.90;;;;;;6246621;23;20394;-64
2022/12/08 12:40:27;;;;;;;8.77;8.07;;;5.80;99.90;;;;;;6246405;23;20473;-64
2022/12/08 12:43:14;;;;;;;11.00;8.40;;;5.80;99.90;;;;;;6246591;23;20432;-63
2022/12/08 12:45:42;;;;;;;9.10;8.23;;;5.80;99.90;;;;;;6246726;23;20391;-63
2022/12/08 12:48:25;;;;;;;8.60;7.80;;;5.80;99.90;;;;;;6246827;23;20407;-64
2022/12/08 12:50:53;;;;;;;10.67;8.60;;;5.90;99.90;;;;;;6247852;23;20502;-64
2022/12/08 12:53:50;;;;;;;9.37;7.90;;;5.90;99.90;;;;;;6246649;23;20474;-64
2022/12/08 12:56:47;;;;;;;8.37;7.67;;;5.90;99.90;;;;;;6247238;23;20894;-64
2022/12/08 12:59:35;;;;;;;8.40;7.70;;;6.00;99.90;;;;;;6246861;23;20441;-64
2022/12/08 13:02:03;;;;;;;7.87;7.17;;;6.00;99.90;;;;;;6246524;23;20462;-65
2022/12/08 13:04:36;;;;;;;8.57;7.63;;;5.90;99.90;;;;;;6246720;23;20434;-65
2022/12/08 13:07:04;;;;;;;7.23;6.63;;;5.90;99.90;;;;;;6246669;23;20468;-63
2022/12/08 13:09:34;;;;;;;8.50;7.50;;;6.00;99.90;;;;;;6246498;23;20415;-63
2022/12/08 13:12:09;;;;;;;8.20;7.50;;;6.00;99.90;;;;;;6248411;23;20501;-62
2022/12/08 13:14:44;;;;;;;8.20;7.37;;;6.00;99.90;;;;;;6247722;23;20401;-63
2022/12/08 13:17:13;;;;;;;7.90;7.20;;;5.80;99.90;;;;;;6247308;23;20394;-63
2022/12/08 13:19:41;;;;;;;8.50;7.67;;;5.90;99.90;;;;;;6248276;23;20414;-62
2022/12/08 13:22:45;;;;;;;7.37;6.80;;;5.90;99.90;;;;;;6247878;23;20439;-62
2022/12/08 13:25:54;;;;;;;8.50;7.70;;;5.90;99.90;;;;;;6247700;23;20414;-63
2022/12/08 13:28:25;;;;;;;7.80;7.20;;;6.00;99.90;;;;;;6217153;23;20415;-64
2022/12/08 13:30:54;;;;;;;7.93;7.23;;;6.10;99.90;;;;;;6246304;23;20435;-65
2022/12/08 13:33:30;;;;;;;9.60;8.40;;;6.20;99.90;;;;;;6246528;23;20489;-64
2022/12/08 13:36:05;;;;;;;9.47;8.43;;;6.20;99.90;;;;;;6247959;23;20410;-63
2022/12/08 13:38:34;;;;;;;10.50;7.87;;;6.10;99.90;;;;;;6248377;23;20402;-63
2022/12/08 13:41:06;;;;;;;9.27;8.47;;;6.00;99.90;;;;;;6248893;23;20493;-64
2022/12/08 13:43:40;;;;;;;8.93;8.17;;;6.00;99.90;;;;;;6248645;23;20587;-63
2022/12/08 13:46:10;;;;;;;10.50;8.07;;;6.00;99.90;;;;;;6250994;23;20402;-64
2022/12/08 13:48:45;;;;;;;9.70;8.90;;;5.90;99.90;;;;;;6249552;23;20411;-65
2022/12/08 13:51:16;;;;;;;9.67;8.77;;;5.90;99.90;;;;;;6249453;23;20876;-62
2022/12/08 13:53:47;;;;;;;8.60;7.80;;;5.90;99.90;;;;;;6248453;23;20391;-64
2022/12/08 13:56:14;;;;;;;10.13;9.13;;;5.90;99.90;;;;;;6249198;23;20395;-65
2022/12/08 13:58:41;;;;;;;8.73;7.87;;;5.80;99.90;;;;;;6249613;23;20469;-65
2022/12/08 14:01:13;;;;;;;9.03;7.80;;;5.80;99.90;;;;;;6248150;23;20443;-64
2022/12/08 14:03:48;;;;;;;9.83;8.80;;;5.80;99.90;;;;;;6248830;23;20927;-64
2022/12/08 14:06:16;;;;;;;10.37;8.10;;;5.70;99.90;;;;;;6248788;23;20449;-64
2022/12/08 14:08:46;;;;;;;10.00;9.10;;;5.70;99.90;;;;;;6248503;23;20494;-64
2022/12/08 14:11:32;;;;;;;9.00;8.20;;;5.80;99.90;;;;;;6248283;23;20431;-64
2022/12/08 14:13:59;;;;;;;8.77;7.97;;;5.70;99.90;;;;;;6247831;23;20474;-63
2022/12/08 14:16:29;;;;;;;9.30;7.20;;;5.80;99.90;;;;;;6247812;23;20415;-63
2022/12/08 14:19:05;;;;;;;9.60;8.80;;;5.80;99.90;;;;;;6247625;23;20435;-62
2022/12/08 14:21:31;;;;;;;10.40;9.40;;;5.80;99.90;;;;;;6247757;23;20430;-62
2022/12/08 14:24:01;;;;;;;8.70;7.90;;;5.70;99.90;;;;;;6247657;23;20788;-62
2022/12/08 14:26:33;;;;;;;9.03;8.13;;;5.70;99.90;;;;;;6247759;23;20785;-63
2022/12/08 14:28:59;;;;;;;9.87;8.97;;;5.70;99.90;;;;;;6247750;23;20482;-62
2022/12/08 14:31:28;;;;;;;9.53;8.80;;;5.70;99.90;;;;;;6247783;23;20457;-62
2022/12/08 14:33:55;;;;;;;9.90;8.90;;;5.70;99.90;;;;;;6247756;23;20514;-63
2022/12/08 14:36:22;;;;;;;10.30;9.20;;;5.70;99.90;;;;;;6247650;23;20411;-62
2022/12/08 14:38:56;;;;;;;11.20;9.40;;;5.70;99.90;;;;;;6247701;23;20422;-62
2022/12/08 14:41:31;;;;;;;10.93;9.87;;;5.60;99.90;;;;;;6247813;23;20938;-64
2022/12/08 14:43:59;;;;;;;8.97;8.13;;;5.60;99.90;;;;;;6248080;23;20423;-64
2022/12/08 14:46:28;;;;;;;10.43;8.60;;;5.60;99.90;;;;;;6247779;23;20772;-62
2022/12/08 14:48:56;;;;;;;9.27;8.37;;;5.50;99.90;;;;;;6247362;23;20930;-62
2022/12/08 14:51:28;;;;;;;10.00;8.90;;;5.50;99.90;;;;;;6247515;23;20495;-62
2022/12/08 14:53:58;;;;;;;10.57;9.20;;;5.50;99.90;;;;;;6247473;23;20402;-62
2022/12/08 14:56:28;;;;;;;9.33;8.57;;;5.50;99.90;;;;;;6247128;23;20967;-62
2022/12/08 14:59:05;;;;;;;9.73;8.87;;;5.50;99.90;;;;;;6247174;23;20415;-62
2022/12/08 15:01:33;;;;;;;10.50;8.93;;;5.50;99.90;;;;;;6246811;23;20438;-61
2022/12/08 15:04:02;;;;;;;11.80;9.00;;;5.50;99.90;;;;;;6247223;23;20512;-62
2022/12/08 15:06:29;;;;;;;9.80;8.83;;;5.50;99.90;;;;;;6247192;23;20418;-62
2022/12/08 15:08:58;;;;;;;10.10;9.17;;;5.50;99.90;;;;;;6247430;23;20415;-63
2022/12/08 15:11:31;;;;;;;10.67;9.43;;;5.40;99.90;;;;;;6247144;23;20489;-62
2022/12/08 15:13:58;;;;;;;9.70;8.80;;;5.40;99.90;;;;;;6247857;23;20391;-62
2022/12/08 15:16:31;;;;;;;10.60;9.70;;;5.30;99.90;;;;;;6247009;23;20414;-62
2022/12/08 15:19:12;;;;;;;10.30;9.20;;;5.30;99.90;;;;;;6247050;23;20395;-62
2022/12/08 15:21:39;;;;;;;10.27;9.27;;;5.30;99.90;;;;;;6247629;23;20434;-64
2022/12/08 15:24:06;;;;;;;8.83;8.03;;;5.40;99.90;;;;;;6247803;23;20431;-61
2022/12/08 15:26:39;;;;;;;9.50;8.70;;;5.30;99.90;;;;;;6247441;23;20472;-61
2022/12/08 15:29:18;;;;;;;10.00;9.10;;;5.30;99.90;;;;;;6247599;23;20395;-61
2022/12/08 15:31:45;;;;;;;9.47;8.50;;;5.30;99.90;;;;;;6248349;23;20758;-64
2022/12/08 15:34:13;;;;;;;10.33;9.20;;;5.20;99.90;;;;;;6247347;23;20439;-65
2022/12/08 15:36:41;;;;;;;10.30;9.33;;;5.10;99.90;;;;;;6247636;23;20716;-65
2022/12/08 15:39:20;;;;;;;10.10;9.20;;;5.10;99.90;;;;;;6246881;23;20906;-64
2022/12/08 15:41:46;;;;;;;10.27;9.27;;;5.10;99.90;;;;;;6246960;23;20431;-65
2022/12/08 15:44:13;;;;;;;9.90;8.93;;;5.00;99.90;;;;;;6246902;23;20438;-64
2022/12/08 15:46:40;;;;;;;12.20;8.57;;;4.90;99.90;;;;;;6247106;23;20402;-64
2022/12/08 15:49:09;;;;;;;9.90;8.90;;;4.90;99.90;;;;;;6246983;23;20468;-64
2022/12/08 15:51:37;;;;;;;8.67;7.83;;;4.80;99.90;;;;;;6246999;23;20438;-65
2022/12/08 15:54:04;;;;;;;8.97;8.07;;;4.80;99.90;;;;;;6246740;23;20411;-63
2022/12/08 15:56:31;;;;;;;11.23;8.90;;;4.80;99.90;;;;;;6246463;23;20399;-65
2022/12/08 15:58:57;;;;;;;9.37;7.87;;;4.70;99.90;;;;;;6246859;23;20410;-64
2022/12/08 16:01:24;;;;;;;9.63;8.70;;;4.70;99.90;;;;;;6247759;23;20439;-64
2022/12/08 16:03:51;;;;;;;8.97;8.10;;;4.70;99.90;;;;;;6247893;23;20485;-64
2022/12/08 16:06:20;;;;;;;8.30;7.60;;;4.70;99.90;;;;;;6246980;23;20406;-61
2022/12/08 16:08:48;;;;;;;9.43;7.83;;;4.70;99.90;;;;;;6246705;23;20461;-61
2022/12/08 16:13:58;;;;;;;8.50;7.70;;;4.70;99.90;;;;;;6257321;23;20394;-61
2022/12/08 16:16:29;;;;;;;9.50;8.60;;;4.70;99.90;;;;;;6246948;23;20739;-62
2022/12/08 16:18:56;;;;;;;9.10;8.27;;;4.70;99.90;;;;;;6246612;23;20871;-64
2022/12/08 16:21:24;;;;;;;12.73;9.33;;;4.70;99.90;;;;;;6247295;23;20477;-63
2022/12/08 16:23:52;;;;;;;10.03;9.10;;;4.60;99.90;;;;;;6246609;23;20430;-61
2022/12/08 16:26:22;;;;;;;10.23;9.30;;;4.60;99.90;;;;;;6247354;23;20407;-62
2022/12/08 16:28:49;;;;;;;11.00;9.20;;;4.70;99.90;;;;;;6248422;23;20452;-61
2022/12/08 16:31:15;;;;;;;11.10;10.10;;;4.70;99.90;;;;;;6247933;23;20438;-61
2022/12/08 16:33:42;;;;;;;13.40;8.77;;;4.70;99.90;;;;;;6247868;23;20470;-61
2022/12/08 16:36:10;;;;;;;9.73;8.63;;;4.70;99.90;;;;;;6247053;23;20418;-64
2022/12/08 16:38:37;;;;;;;11.20;10.00;;;4.70;99.90;;;;;;6246671;23;20938;-64
2022/12/08 16:43:50;;;;;;;11.13;8.80;;;4.70;99.90;;;;;;6246520;23;20465;-64
2022/12/08 16:46:22;;;;;;;11.53;10.43;;;4.80;99.90;;;;;;6246912;23;20411;-64
2022/12/08 16:48:49;;;;;;;15.53;13.93;;;4.80;99.90;;;;;;6247404;23;20410;-62
2022/12/08 16:51:17;;;;;;;12.43;11.23;;;4.80;99.90;;;;;;6246612;23;20481;-61
2022/12/08 16:53:44;;;;;;;11.30;10.30;;;4.80;99.90;;;;;;6246677;23;20418;-62
2022/12/08 16:56:17;;;;;;;12.80;9.30;;;4.80;99.90;;;;;;6245896;23;20411;-63
2022/12/08 16:58:44;;;;;;;10.87;9.77;;;4.80;99.90;;;;;;6246452;23;20478;-62
2022/12/08 17:01:11;;;;;;;11.50;10.00;;;4.70;99.90;;;;;;6245960;23;20826;-62
2022/12/08 17:03:39;;;;;;;17.50;9.70;;;4.70;99.90;;;;;;6246441;23;20414;-62
2022/12/08 17:06:09;;;;;;;11.40;9.93;;;4.80;99.90;;;;;;6246683;23;20410;-62
2022/12/08 17:08:36;;;;;;;9.87;8.87;;;4.80;99.90;;;;;;6247903;23;20494;-62
2022/12/08 17:11:10;;;;;;;9.77;8.77;;;4.90;99.90;;;;;;6249130;23;20431;-62
2022/12/08 17:13:41;;;;;;;13.37;10.47;;;4.90;99.90;;;;;;6248570;23;20394;-62
2022/12/08 17:16:09;;;;;;;9.73;8.90;;;4.90;99.90;;;;;;6248748;23;20395;-61
2022/12/08 17:18:36;;;;;;;9.67;8.70;;;4.90;99.90;;;;;;6248468;23;20410;-61
2022/12/08 17:21:03;;;;;;;10.03;8.40;;;4.90;99.90;;;;;;6248281;23;20935;-61
2022/12/08 17:23:30;;;;;;;8.30;7.63;;;4.90;99.90;;;;;;6248052;23;20421;-62
2022/12/08 17:26:00;;;;;;;15.03;10.07;;;4.80;99.90;;;;;;6248169;23;20435;-63
2022/12/08 17:28:27;;;;;;;14.70;10.43;;;4.80;99.90;;;;;;6248032;23;20411;-63
2022/12/08 17:30:55;;;;;;;13.23;11.00;;;4.70;99.90;;;;;;6247958;23;20435;-63
2022/12/08 17:33:22;;;;;;;13.87;10.30;;;4.70;99.90;;;;;;6248286;23;20414;-63
2022/12/08 17:35:49;;;;;;;11.53;10.43;;;4.60;99.90;;;;;;6248077;23;20470;-63
2022/12/08 17:38:16;;;;;;;12.50;11.20;;;4.60;99.90;;;;;;6247823;23;20415;-63
2022/12/08 17:40:44;;;;;;;15.10;12.20;;;4.60;99.90;;;;;;6247995;23;20517;-62
2022/12/08 17:43:11;;;;;;;15.23;12.27;;;4.50;99.90;;;;;;6248021;23;20953;-64
2022/12/08 17:45:41;;;;;;;17.27;12.93;;;4.50;99.90;;;;;;6248616;23;20485;-64
2022/12/08 17:48:09;;;;;;;18.00;13.37;;;4.50;99.90;;;;;;6249304;23;20494;-64
2022/12/08 17:50:39;;;;;;;13.83;12.37;;;4.50;99.90;;;;;;6248489;23;20415;-64
2022/12/08 17:53:05;;;;;;;16.30;14.33;;;4.50;99.90;;;;;;6249894;23;20442;-65
2022/12/08 17:55:32;;;;;;;19.00;13.83;;;4.50;99.90;;;;;;6249188;23;20457;-62
2022/12/08 17:57:59;;;;;;;14.07;12.57;;;4.40;99.90;;;;;;6248227;23;20888;-62
2022/12/08 18:00:26;;;;;;;14.70;13.10;;;4.40;99.90;;;;;;6247733;23;20789;-62
2022/12/08 18:02:52;;;;;;;17.67;14.60;;;4.40;99.90;;;;;;6249039;23;20392;-63
2022/12/08 18:05:20;;;;;;;14.70;13.20;;;4.40;99.90;;;;;;6248764;23;20435;-62
2022/12/08 18:07:47;;;;;;;14.67;13.17;;;4.40;99.90;;;;;;6248602;23;20465;-63
2022/12/08 18:10:14;;;;;;;17.47;13.70;;;4.40;99.90;;;;;;6248494;23;20957;-64
2022/12/08 18:12:41;;;;;;;17.50;14.20;;;4.40;99.90;;;;;;6248649;23;20939;-63